sensor_id;sensor_type;location;lat;lon;timestamp;pressure;altitude;pressure_sealevel;temperature;humidity
50268;BME280;36153;50.960;6.220;2023-04-28T00:00:52;100267.63;;;14.84;48.58
50268;BME280;36153;50.960;6.220;2023-04-28T00:03:53;100272.75;;;14.98;48.45
50268;BME280;36153;50.960;6.220;2023-04-28T00:06:54;100274.50;;;14.98;48.24
50268;BME280;36153;50.960;6.220;2023-04-28T00:09:54;100264.81;;;15.06;48.71
50268;BME280;36153;50.960;6.220;2023-04-28T00:12:56;100261.31;;;15.04;49.24
50268;BME280;36153;50.960;6.220;2023-04-28T00:15:56;100250.78;;;15.07;49.86
50268;BME280;36153;50.960;6.220;2023-04-28T00:18:58;100255.09;;;15.16;50.16
50268;BME280;36153;50.960;6.220;2023-04-28T00:21:59;100253.34;;;15.15;50.45
50268;BME280;36153;50.960;6.220;2023-04-28T00:25:00;100248.03;;;15.19;50.67
50268;BME280;36153;50.960;6.220;2023-04-28T00:28:00;100240.19;;;15.19;50.48
50268;BME280;36153;50.960;6.220;2023-04-28T00:31:01;100241.97;;;15.17;50.69
50268;BME280;36153;50.960;6.220;2023-04-28T00:34:09;100239.31;;;15.19;51.16
50268;BME280;36153;50.960;6.220;2023-04-28T00:37:13;100238.47;;;15.15;50.93
50268;BME280;36153;50.960;6.220;2023-04-28T00:40:13;100235.84;;;15.15;51.05
50268;BME280;36153;50.960;6.220;2023-04-28T00:43:14;100227.16;;;15.13;50.88
50268;BME280;36153;50.960;6.220;2023-04-28T00:46:26;100223.59;;;15.19;51.01
50268;BME280;36153;50.960;6.220;2023-04-28T00:49:29;100236.72;;;15.17;51.03
50268;BME280;36153;50.960;6.220;2023-04-28T00:52:29;100229.91;;;15.01;51.21
50268;BME280;36153;50.960;6.220;2023-04-28T00:55:31;100221.09;;;15.08;51.05
50268;BME280;36153;50.960;6.220;2023-04-28T00:58:33;100212.25;;;15.15;51.07
50268;BME280;36153;50.960;6.220;2023-04-28T01:01:34;100228.03;;;15.12;50.96
50268;BME280;36153;50.960;6.220;2023-04-28T01:04:35;100224.56;;;15.12;51.60
50268;BME280;36153;50.960;6.220;2023-04-28T01:07:36;100215.78;;;15.11;52.21
50268;BME280;36153;50.960;6.220;2023-04-28T01:10:42;100224.56;;;15.10;52.75
50268;BME280;36153;50.960;6.220;2023-04-28T01:13:43;100218.41;;;15.14;52.51
50268;BME280;36153;50.960;6.220;2023-04-28T01:16:43;100219.28;;;15.13;52.96
50268;BME280;36153;50.960;6.220;2023-04-28T01:19:43;100214.88;;;15.15;53.05
50268;BME280;36153;50.960;6.220;2023-04-28T01:22:44;100222.00;;;15.04;52.89
50268;BME280;36153;50.960;6.220;2023-04-28T01:25:44;100216.00;;;14.94;53.73
50268;BME280;36153;50.960;6.220;2023-04-28T01:28:44;100202.91;;;14.93;53.43
50268;BME280;36153;50.960;6.220;2023-04-28T01:31:45;100199.47;;;14.89;54.04
50268;BME280;36153;50.960;6.220;2023-04-28T01:34:45;100204.78;;;14.83;55.23
50268;BME280;36153;50.960;6.220;2023-04-28T01:37:46;100203.97;;;14.76;55.97
50268;BME280;36153;50.960;6.220;2023-04-28T01:40:47;100193.38;;;14.87;55.84
50268;BME280;36153;50.960;6.220;2023-04-28T01:43:47;100180.19;;;14.95;55.58
50268;BME280;36153;50.960;6.220;2023-04-28T01:46:47;100187.88;;;15.10;54.59
50268;BME280;36153;50.960;6.220;2023-04-28T01:49:48;100183.50;;;15.09;54.46
50268;BME280;36153;50.960;6.220;2023-04-28T01:52:49;100193.03;;;15.16;54.12
50268;BME280;36153;50.960;6.220;2023-04-28T01:55:49;100198.19;;;15.21;53.73
50268;BME280;36153;50.960;6.220;2023-04-28T01:58:50;100194.72;;;15.21;54.13
50268;BME280;36153;50.960;6.220;2023-04-28T02:01:51;100182.78;;;14.98;55.35
50268;BME280;36153;50.960;6.220;2023-04-28T02:04:51;100187.28;;;14.87;56.10
50268;BME280;36153;50.960;6.220;2023-04-28T02:07:51;100187.28;;;14.87;56.50
50268;BME280;36153;50.960;6.220;2023-04-28T02:10:52;100186.31;;;14.94;56.11
50268;BME280;36153;50.960;6.220;2023-04-28T02:13:52;100173.09;;;15.05;55.65
50268;BME280;36153;50.960;6.220;2023-04-28T02:16:52;100189.59;;;15.11;55.09
50268;BME280;36153;50.960;6.220;2023-04-28T02:19:56;100180.97;;;15.03;54.84
50268;BME280;36153;50.960;6.220;2023-04-28T02:22:56;100167.94;;;14.95;56.35
50268;BME280;36153;50.960;6.220;2023-04-28T02:26:00;100163.50;;;15.02;56.91
50268;BME280;36153;50.960;6.220;2023-04-28T02:29:01;100157.53;;;14.89;56.82
50268;BME280;36153;50.960;6.220;2023-04-28T02:32:03;100171.59;;;14.82;57.11
50268;BME280;36153;50.960;6.220;2023-04-28T02:35:04;100170.84;;;14.69;57.50
50268;BME280;36153;50.960;6.220;2023-04-28T02:38:04;100168.09;;;14.81;57.26
50268;BME280;36153;50.960;6.220;2023-04-28T02:41:08;100167.16;;;14.89;57.54
50268;BME280;36153;50.960;6.220;2023-04-28T02:44:08;100163.50;;;15.02;56.80
50268;BME280;36153;50.960;6.220;2023-04-28T02:47:08;100161.81;;;14.98;57.02
50268;BME280;36153;50.960;6.220;2023-04-28T02:50:09;100163.47;;;15.05;56.69
50268;BME280;36153;50.960;6.220;2023-04-28T02:53:10;100158.25;;;15.02;56.82
50268;BME280;36153;50.960;6.220;2023-04-28T02:56:10;100157.25;;;15.11;56.68
50268;BME280;36153;50.960;6.220;2023-04-28T02:59:10;100158.81;;;15.27;56.50
50268;BME280;36153;50.960;6.220;2023-04-28T03:02:11;100159.81;;;15.15;57.02
50268;BME280;36153;50.960;6.220;2023-04-28T03:05:11;100159.00;;;15.13;57.31
50268;BME280;36153;50.960;6.220;2023-04-28T03:08:12;100160.75;;;15.11;57.97
50268;BME280;36153;50.960;6.220;2023-04-28T03:11:12;100149.31;;;15.18;57.91
50268;BME280;36153;50.960;6.220;2023-04-28T03:14:13;100126.66;;;15.11;58.19
50268;BME280;36153;50.960;6.220;2023-04-28T03:17:13;100126.59;;;15.17;58.24
50268;BME280;36153;50.960;6.220;2023-04-28T03:20:14;100111.78;;;15.13;58.52
50268;BME280;36153;50.960;6.220;2023-04-28T03:23:14;100102.56;;;14.84;59.65
50268;BME280;36153;50.960;6.220;2023-04-28T03:26:15;100098.94;;;14.95;59.80
50268;BME280;36153;50.960;6.220;2023-04-28T03:29:15;100083.34;;;14.85;59.91
50268;BME280;36153;50.960;6.220;2023-04-28T03:32:16;100070.19;;;14.87;60.22
50268;BME280;36153;50.960;6.220;2023-04-28T03:35:16;100062.56;;;14.70;60.94
50268;BME280;36153;50.960;6.220;2023-04-28T03:38:17;100050.44;;;14.63;61.34
50268;BME280;36153;50.960;6.220;2023-04-28T03:41:17;100057.41;;;14.59;61.63
50268;BME280;36153;50.960;6.220;2023-04-28T03:44:18;100062.28;;;14.92;60.82
50268;BME280;36153;50.960;6.220;2023-04-28T03:47:18;100054.41;;;14.92;60.37
50268;BME280;36153;50.960;6.220;2023-04-28T03:50:19;100058.84;;;14.88;60.38
50268;BME280;36153;50.960;6.220;2023-04-28T03:53:19;100089.94;;;15.14;59.66
50268;BME280;36153;50.960;6.220;2023-04-28T03:56:20;100084.66;;;15.17;59.35
50268;BME280;36153;50.960;6.220;2023-04-28T03:59:21;100080.19;;;15.24;59.16
50268;BME280;36153;50.960;6.220;2023-04-28T04:02:21;100063.56;;;15.27;58.82
50268;BME280;36153;50.960;6.220;2023-04-28T04:05:21;100092.28;;;15.33;59.34
50268;BME280;36153;50.960;6.220;2023-04-28T04:08:22;100076.47;;;15.41;58.92
50268;BME280;36153;50.960;6.220;2023-04-28T04:11:23;100082.56;;;15.41;58.88
50268;BME280;36153;50.960;6.220;2023-04-28T04:14:23;100084.41;;;15.34;59.10
50268;BME280;36153;50.960;6.220;2023-04-28T04:17:23;100083.53;;;15.34;59.08
50268;BME280;36153;50.960;6.220;2023-04-28T04:20:24;100086.13;;;15.35;59.15
50268;BME280;36153;50.960;6.220;2023-04-28T04:23:24;100070.72;;;15.12;59.53
50268;BME280;36153;50.960;6.220;2023-04-28T04:26:25;100080.44;;;15.04;60.00
50268;BME280;36153;50.960;6.220;2023-04-28T04:29:26;100076.69;;;15.24;59.54
50268;BME280;36153;50.960;6.220;2023-04-28T04:32:29;100079.31;;;15.24;59.25
50268;BME280;36153;50.960;6.220;2023-04-28T04:35:29;100084.47;;;15.30;59.43
50268;BME280;36153;50.960;6.220;2023-04-28T04:38:30;100084.53;;;15.27;59.34
50268;BME280;36153;50.960;6.220;2023-04-28T04:41:31;100081.00;;;15.28;59.64
50268;BME280;36153;50.960;6.220;2023-04-28T04:44:31;100075.94;;;15.15;59.95
50268;BME280;36153;50.960;6.220;2023-04-28T04:47:31;100072.59;;;15.04;60.97
50268;BME280;36153;50.960;6.220;2023-04-28T04:50:32;100086.59;;;15.03;61.24
50268;BME280;36153;50.960;6.220;2023-04-28T04:53:32;100072.75;;;14.95;61.30
50268;BME280;36153;50.960;6.220;2023-04-28T04:56:32;100066.59;;;14.94;61.57
50268;BME280;36153;50.960;6.220;2023-04-28T04:59:33;100066.72;;;14.87;61.56
50268;BME280;36153;50.960;6.220;2023-04-28T05:02:33;100069.34;;;14.87;62.04
50268;BME280;36153;50.960;6.220;2023-04-28T05:05:34;100064.16;;;14.82;62.27
50268;BME280;36153;50.960;6.220;2023-04-28T05:08:34;100076.28;;;14.91;62.07
50268;BME280;36153;50.960;6.220;2023-04-28T05:11:35;100072.66;;;14.99;62.00
50268;BME280;36153;50.960;6.220;2023-04-28T05:14:35;100071.75;;;15.04;61.66
50268;BME280;36153;50.960;6.220;2023-04-28T05:17:36;100062.28;;;14.92;62.35
50268;BME280;36153;50.960;6.220;2023-04-28T05:20:36;100058.66;;;15.02;62.13
50268;BME280;36153;50.960;6.220;2023-04-28T05:23:37;100059.47;;;15.04;62.32
50268;BME280;36153;50.960;6.220;2023-04-28T05:26:37;100058.66;;;15.02;62.53
50268;BME280;36153;50.960;6.220;2023-04-28T05:29:37;100062.91;;;15.09;62.00
50268;BME280;36153;50.960;6.220;2023-04-28T05:32:38;100060.16;;;15.20;61.68
50268;BME280;36153;50.960;6.220;2023-04-28T05:35:38;100045.47;;;15.07;61.76
50268;BME280;36153;50.960;6.220;2023-04-28T05:38:39;100046.38;;;15.04;61.69
50268;BME280;36153;50.960;6.220;2023-04-28T05:41:39;100041.00;;;15.13;61.56
50268;BME280;36153;50.960;6.220;2023-04-28T05:44:39;100043.63;;;15.13;61.78
50268;BME280;36153;50.960;6.220;2023-04-28T05:47:40;100055.91;;;15.10;61.52
50268;BME280;36153;50.960;6.220;2023-04-28T05:50:40;100045.34;;;15.16;61.83
50268;BME280;36153;50.960;6.220;2023-04-28T05:53:41;100048.03;;;15.11;61.73
50268;BME280;36153;50.960;6.220;2023-04-28T05:56:41;100060.19;;;15.18;61.77
50268;BME280;36153;50.960;6.220;2023-04-28T05:59:41;100068.03;;;15.17;62.05
50268;BME280;36153;50.960;6.220;2023-04-28T06:02:42;100066.97;;;15.30;61.67
50268;BME280;36153;50.960;6.220;2023-04-28T06:05:43;100065.22;;;15.31;61.70
50268;BME280;36153;50.960;6.220;2023-04-28T06:08:44;100070.28;;;15.43;61.65
50268;BME280;36153;50.960;6.220;2023-04-28T06:11:45;100060.53;;;15.51;61.59
50268;BME280;36153;50.960;6.220;2023-04-28T06:14:46;100077.94;;;15.56;61.50
50268;BME280;36153;50.960;6.220;2023-04-28T06:17:46;100061.56;;;15.43;61.71
50268;BME280;36153;50.960;6.220;2023-04-28T06:20:47;100066.56;;;15.57;61.56
50268;BME280;36153;50.960;6.220;2023-04-28T06:23:47;100077.19;;;15.50;62.08
50268;BME280;36153;50.960;6.220;2023-04-28T06:26:47;100059.34;;;15.71;61.72
50268;BME280;36153;50.960;6.220;2023-04-28T06:29:48;100063.63;;;15.78;61.37
50268;BME280;36153;50.960;6.220;2023-04-28T06:32:48;100058.34;;;15.77;60.89
50268;BME280;36153;50.960;6.220;2023-04-28T06:35:49;100052.91;;;15.91;61.31
50268;BME280;36153;50.960;6.220;2023-04-28T06:38:49;100053.25;;;16.20;60.25
50268;BME280;36153;50.960;6.220;2023-04-28T06:41:50;100069.88;;;16.21;59.74
50268;BME280;36153;50.960;6.220;2023-04-28T06:44:50;100070.13;;;16.07;60.18
50268;BME280;36153;50.960;6.220;2023-04-28T06:47:52;100069.63;;;16.33;60.25
50268;BME280;36153;50.960;6.220;2023-04-28T06:50:54;100071.31;;;16.37;59.73
50268;BME280;36153;50.960;6.220;2023-04-28T06:53:55;100071.91;;;16.53;59.41
50268;BME280;36153;50.960;6.220;2023-04-28T06:56:55;100070.38;;;16.40;59.33
50268;BME280;36153;50.960;6.220;2023-04-28T06:59:55;100073.66;;;16.51;59.59
50268;BME280;36153;50.960;6.220;2023-04-28T07:02:56;100070.75;;;16.65;59.61
50268;BME280;36153;50.960;6.220;2023-04-28T07:05:56;100076.69;;;16.75;59.57
50268;BME280;36153;50.960;6.220;2023-04-28T07:08:57;100070.75;;;17.09;58.96
50268;BME280;36153;50.960;6.220;2023-04-28T07:11:57;100068.59;;;17.27;58.50
50268;BME280;36153;50.960;6.220;2023-04-28T07:14:58;100055.47;;;17.25;58.16
50268;BME280;36153;50.960;6.220;2023-04-28T07:17:59;100043.88;;;17.70;57.89
50268;BME280;36153;50.960;6.220;2023-04-28T07:20:59;100055.63;;;18.25;56.93
50268;BME280;36153;50.960;6.220;2023-04-28T07:24:00;100055.03;;;18.47;56.24
50268;BME280;36153;50.960;6.220;2023-04-28T07:27:00;100059.31;;;18.51;55.84
50268;BME280;36153;50.960;6.220;2023-04-28T07:30:03;100053.94;;;18.54;55.61
50268;BME280;36153;50.960;6.220;2023-04-28T07:33:03;100048.44;;;18.62;55.96
50268;BME280;36153;50.960;6.220;2023-04-28T07:36:04;100047.94;;;19.09;54.90
50268;BME280;36153;50.960;6.220;2023-04-28T07:39:05;100046.75;;;19.48;54.50
50268;BME280;36153;50.960;6.220;2023-04-28T07:42:05;100049.22;;;19.79;54.60
50268;BME280;36153;50.960;6.220;2023-04-28T07:45:06;100045.81;;;20.02;53.44
50268;BME280;36153;50.960;6.220;2023-04-28T07:48:06;100047.81;;;19.69;54.19
50268;BME280;36153;50.960;6.220;2023-04-28T07:51:06;100052.81;;;19.50;54.40
50268;BME280;36153;50.960;6.220;2023-04-28T07:54:12;100051.28;;;19.16;55.42
50268;BME280;36153;50.960;6.220;2023-04-28T07:57:42;100054.22;;;19.05;55.75
50268;BME280;36153;50.960;6.220;2023-04-28T08:00:42;100047.63;;;18.91;56.50
50268;BME280;36153;50.960;6.220;2023-04-28T08:03:43;100052.38;;;19.08;56.30
50268;BME280;36153;50.960;6.220;2023-04-28T08:06:43;100053.81;;;19.19;56.37
50268;BME280;36153;50.960;6.220;2023-04-28T08:09:43;100053.97;;;19.14;56.46
50268;BME280;36153;50.960;6.220;2023-04-28T08:12:46;100051.13;;;19.20;57.29
50268;BME280;36153;50.960;6.220;2023-04-28T08:15:47;100054.13;;;19.08;58.18
50268;BME280;36153;50.960;6.220;2023-04-28T08:18:48;100055.06;;;19.07;58.46
50268;BME280;36153;50.960;6.220;2023-04-28T08:21:48;100055.06;;;19.07;58.54
50268;BME280;36153;50.960;6.220;2023-04-28T08:24:49;100059.50;;;19.05;58.88
50268;BME280;36153;50.960;6.220;2023-04-28T08:27:49;100057.34;;;18.89;59.12
50268;BME280;36153;50.960;6.220;2023-04-28T08:30:50;100065.72;;;18.72;59.58
50268;BME280;36153;50.960;6.220;2023-04-28T08:33:51;100059.47;;;18.45;60.19
50268;BME280;36153;50.960;6.220;2023-04-28T08:36:52;100069.66;;;18.57;60.74
50268;BME280;36153;50.960;6.220;2023-04-28T08:39:52;100063.63;;;18.54;60.73
50268;BME280;36153;50.960;6.220;2023-04-28T08:43:01;100066.81;;;18.34;62.08
50268;BME280;36153;50.960;6.220;2023-04-28T08:46:05;100073.28;;;18.53;62.39
50268;BME280;36153;50.960;6.220;2023-04-28T08:49:12;100072.25;;;18.59;62.21
50268;BME280;36153;50.960;6.220;2023-04-28T08:52:16;100067.06;;;18.56;62.29
50268;BME280;36153;50.960;6.220;2023-04-28T08:55:17;100077.56;;;18.57;61.62
50268;BME280;36153;50.960;6.220;2023-04-28T08:58:18;100074.53;;;18.41;63.75
50268;BME280;36153;50.960;6.220;2023-04-28T09:01:19;100070.19;;;18.39;64.72
50268;BME280;36153;50.960;6.220;2023-04-28T09:04:19;100072.88;;;18.37;65.24
50268;BME280;36153;50.960;6.220;2023-04-28T09:07:20;100073.25;;;18.55;64.94
50268;BME280;36153;50.960;6.220;2023-04-28T09:10:22;100069.72;;;18.86;64.46
50268;BME280;36153;50.960;6.220;2023-04-28T09:13:24;100076.06;;;19.10;63.30
50268;BME280;36153;50.960;6.220;2023-04-28T09:16:38;100074.75;;;19.25;64.19
50268;BME280;36153;50.960;6.220;2023-04-28T09:19:39;100081.00;;;19.49;62.11
50268;BME280;36153;50.960;6.220;2023-04-28T09:22:42;100069.81;;;19.41;62.47
50268;BME280;36153;50.960;6.220;2023-04-28T09:29:11;100068.25;;;19.62;62.40
50268;BME280;36153;50.960;6.220;2023-04-28T09:32:18;100077.59;;;19.45;62.89
50268;BME280;36153;50.960;6.220;2023-04-28T09:35:38;100072.06;;;19.53;62.36
50268;BME280;36153;50.960;6.220;2023-04-28T09:38:42;100071.03;;;20.11;62.44
50268;BME280;36153;50.960;6.220;2023-04-28T09:41:43;100066.00;;;20.05;61.23
50268;BME280;36153;50.960;6.220;2023-04-28T09:44:52;100064.41;;;19.99;61.40
50268;BME280;36153;50.960;6.220;2023-04-28T09:47:52;100058.25;;;19.72;61.49
50268;BME280;36153;50.960;6.220;2023-04-28T09:51:07;100074.59;;;19.56;62.39
50268;BME280;36153;50.960;6.220;2023-04-28T09:54:09;100063.97;;;19.31;63.22
50268;BME280;36153;50.960;6.220;2023-04-28T09:57:10;100060.59;;;19.54;62.77
50268;BME280;36153;50.960;6.220;2023-04-28T10:00:11;100068.75;;;19.75;62.09
50268;BME280;36153;50.960;6.220;2023-04-28T10:03:13;100063.41;;;20.03;61.77
50268;BME280;36153;50.960;6.220;2023-04-28T10:06:14;100061.66;;;20.02;61.40
50268;BME280;36153;50.960;6.220;2023-04-28T10:09:15;100062.00;;;20.18;61.82
50268;BME280;36153;50.960;6.220;2023-04-28T10:12:17;100059.78;;;20.31;61.12
50268;BME280;36153;50.960;6.220;2023-04-28T10:15:19;100063.16;;;21.07;60.19
50268;BME280;36153;50.960;6.220;2023-04-28T10:18:22;100058.44;;;21.80;58.06
50268;BME280;36153;50.960;6.220;2023-04-28T10:21:24;100055.63;;;21.85;56.86
50268;BME280;36153;50.960;6.220;2023-04-28T10:24:28;100058.84;;;21.49;57.81
50268;BME280;36153;50.960;6.220;2023-04-28T10:27:30;100060.06;;;21.18;57.96
50268;BME280;36153;50.960;6.220;2023-04-28T10:30:31;100059.63;;;21.07;58.13
50268;BME280;36153;50.960;6.220;2023-04-28T10:33:32;100048.94;;;21.10;58.70
50268;BME280;36153;50.960;6.220;2023-04-28T10:36:49;100050.47;;;21.38;59.03
50268;BME280;36153;50.960;6.220;2023-04-28T10:40:32;100054.28;;;21.30;58.34
50268;BME280;36153;50.960;6.220;2023-04-28T10:43:37;100044.59;;;21.52;57.50
50268;BME280;36153;50.960;6.220;2023-04-28T10:50:07;100032.19;;;22.57;55.27
50268;BME280;36153;50.960;6.220;2023-04-28T10:53:07;100034.09;;;23.10;54.47
50268;BME280;36153;50.960;6.220;2023-04-28T10:56:22;100032.56;;;23.43;54.15
50268;BME280;36153;50.960;6.220;2023-04-28T10:59:24;100029.00;;;24.14;53.38
50268;BME280;36153;50.960;6.220;2023-04-28T11:02:36;100027.75;;;24.03;52.13
50268;BME280;36153;50.960;6.220;2023-04-28T11:05:37;100025.97;;;24.37;51.59
50268;BME280;36153;50.960;6.220;2023-04-28T11:08:38;100014.97;;;24.61;49.96
50268;BME280;36153;50.960;6.220;2023-04-28T11:11:39;100014.13;;;24.43;50.33
50268;BME280;36153;50.960;6.220;2023-04-28T11:14:39;100016.88;;;24.42;49.69
50268;BME280;36153;50.960;6.220;2023-04-28T11:17:41;100019.44;;;24.61;49.86
50268;BME280;36153;50.960;6.220;2023-04-28T11:20:43;100010.69;;;24.41;49.55
50268;BME280;36153;50.960;6.220;2023-04-28T11:23:46;100020.84;;;23.64;50.95
50268;BME280;36153;50.960;6.220;2023-04-28T11:26:46;100016.91;;;23.19;51.29
50268;BME280;36153;50.960;6.220;2023-04-28T11:29:47;100014.91;;;23.77;51.08
50268;BME280;36153;50.960;6.220;2023-04-28T11:32:49;100011.78;;;24.03;50.54
50268;BME280;36153;50.960;6.220;2023-04-28T11:35:50;100003.50;;;23.92;48.62
50268;BME280;36153;50.960;6.220;2023-04-28T11:38:51;100005.69;;;23.84;50.22
50268;BME280;36153;50.960;6.220;2023-04-28T11:41:51;100010.66;;;24.25;49.84
50268;BME280;36153;50.960;6.220;2023-04-28T11:44:52;100006.88;;;25.27;47.83
50268;BME280;36153;50.960;6.220;2023-04-28T11:47:53;100003.75;;;25.95;46.19
50268;BME280;36153;50.960;6.220;2023-04-28T11:50:54;100008.47;;;25.61;45.75
50268;BME280;36153;50.960;6.220;2023-04-28T11:53:54;99993.13;;;26.38;45.30
50268;BME280;36153;50.960;6.220;2023-04-28T11:56:56;99991.44;;;26.09;44.83
50268;BME280;36153;50.960;6.220;2023-04-28T12:00:16;99994.41;;;25.73;44.51
50268;BME280;36153;50.960;6.220;2023-04-28T12:03:20;99997.63;;;24.36;48.47
50268;BME280;36153;50.960;6.220;2023-04-28T12:06:21;100008.28;;;23.85;50.02
50268;BME280;36153;50.960;6.220;2023-04-28T12:09:22;100000.59;;;23.62;50.55
50268;BME280;36153;50.960;6.220;2023-04-28T12:12:29;100006.78;;;23.08;51.46
50268;BME280;36153;50.960;6.220;2023-04-28T12:15:39;100002.91;;;23.15;50.98
50268;BME280;36153;50.960;6.220;2023-04-28T12:18:57;99994.41;;;24.47;47.45
50268;BME280;36153;50.960;6.220;2023-04-28T12:22:03;99994.06;;;24.53;47.65
50268;BME280;36153;50.960;6.220;2023-04-28T12:25:14;99992.50;;;25.45;45.94
50268;BME280;36153;50.960;6.220;2023-04-28T12:28:18;99994.13;;;25.01;45.48
50268;BME280;36153;50.960;6.220;2023-04-28T12:31:18;99980.53;;;25.97;43.76
50268;BME280;36153;50.960;6.220;2023-04-28T12:34:19;99981.84;;;25.45;44.49
50268;BME280;36153;50.960;6.220;2023-04-28T12:37:19;99984.94;;;26.27;42.92
50268;BME280;36153;50.960;6.220;2023-04-28T12:40:21;99993.84;;;25.52;42.25
50268;BME280;36153;50.960;6.220;2023-04-28T12:43:22;99992.31;;;24.36;44.56
50268;BME280;36153;50.960;6.220;2023-04-28T12:46:23;99985.34;;;24.18;46.02
50268;BME280;36153;50.960;6.220;2023-04-28T12:49:23;99975.22;;;24.74;44.38
50268;BME280;36153;50.960;6.220;2023-04-28T12:52:24;99977.22;;;25.49;43.25
50268;BME280;36153;50.960;6.220;2023-04-28T12:55:25;99959.84;;;25.86;42.67
50268;BME280;36153;50.960;6.220;2023-04-28T12:58:26;99975.44;;;26.09;42.12
50268;BME280;36153;50.960;6.220;2023-04-28T13:01:26;99972.94;;;26.34;41.14
50268;BME280;36153;50.960;6.220;2023-04-28T13:04:27;99972.31;;;26.87;41.00
50268;BME280;36153;50.960;6.220;2023-04-28T13:07:27;99979.84;;;26.66;40.51
50268;BME280;36153;50.960;6.220;2023-04-28T13:10:27;99971.13;;;26.49;40.96
50268;BME280;36153;50.960;6.220;2023-04-28T13:13:28;99985.50;;;26.47;41.47
50268;BME280;36153;50.960;6.220;2023-04-28T13:16:29;99976.47;;;26.06;41.71
50268;BME280;36153;50.960;6.220;2023-04-28T13:19:29;99973.81;;;25.61;42.00
50268;BME280;36153;50.960;6.220;2023-04-28T13:22:30;99978.16;;;25.48;42.58
50268;BME280;36153;50.960;6.220;2023-04-28T13:25:30;99970.31;;;25.89;41.81
50268;BME280;36153;50.960;6.220;2023-04-28T13:28:31;99974.47;;;27.22;40.24
50268;BME280;36153;50.960;6.220;2023-04-28T13:31:31;99975.97;;;26.71;39.84
50268;BME280;36153;50.960;6.220;2023-04-28T13:34:31;99964.81;;;26.36;40.59
50268;BME280;36153;50.960;6.220;2023-04-28T13:37:32;99965.84;;;27.31;39.72
50268;BME280;36153;50.960;6.220;2023-04-28T13:40:33;99967.69;;;26.33;40.81
50268;BME280;36153;50.960;6.220;2023-04-28T13:43:33;99968.28;;;25.50;42.22
50268;BME280;36153;50.960;6.220;2023-04-28T13:46:34;99967.47;;;25.01;43.48
50268;BME280;36153;50.960;6.220;2023-04-28T13:49:34;99975.63;;;24.17;45.00
50268;BME280;36153;50.960;6.220;2023-04-28T13:52:36;99988.38;;;24.28;44.23
50268;BME280;36153;50.960;6.220;2023-04-28T13:55:36;99988.25;;;25.11;43.65
50268;BME280;36153;50.960;6.220;2023-04-28T13:58:37;99985.22;;;25.63;41.84
50268;BME280;36153;50.960;6.220;2023-04-28T14:01:37;99980.78;;;26.37;40.47
50268;BME280;36153;50.960;6.220;2023-04-28T14:04:37;99976.41;;;25.47;42.31
50268;BME280;36153;50.960;6.220;2023-04-28T14:07:38;99978.63;;;25.99;41.83
50268;BME280;36153;50.960;6.220;2023-04-28T14:10:38;99983.47;;;25.48;41.83
50268;BME280;36153;50.960;6.220;2023-04-28T14:13:38;99995.50;;;24.77;43.47
50268;BME280;36153;50.960;6.220;2023-04-28T14:16:39;99997.25;;;24.60;43.68
50268;BME280;36153;50.960;6.220;2023-04-28T14:19:39;99992.25;;;23.69;44.87
50268;BME280;36153;50.960;6.220;2023-04-28T14:22:40;100013.66;;;23.49;45.91
50268;BME280;36153;50.960;6.220;2023-04-28T14:25:40;99999.69;;;23.80;45.52
50268;BME280;36153;50.960;6.220;2023-04-28T14:28:41;100013.28;;;23.57;45.90
50268;BME280;36153;50.960;6.220;2023-04-28T14:31:41;100001.56;;;24.29;44.52
50268;BME280;36153;50.960;6.220;2023-04-28T14:34:42;100018.44;;;24.46;43.49
50268;BME280;36153;50.960;6.220;2023-04-28T14:37:42;100020.91;;;24.33;44.55
50268;BME280;36153;50.960;6.220;2023-04-28T14:40:43;100017.25;;;23.65;45.71
50268;BME280;36153;50.960;6.220;2023-04-28T14:43:43;100028.53;;;23.71;46.06
50268;BME280;36153;50.960;6.220;2023-04-28T14:46:44;100038.91;;;23.21;46.90
50268;BME280;36153;50.960;6.220;2023-04-28T14:49:46;100039.78;;;23.58;46.77
50268;BME280;36153;50.960;6.220;2023-04-28T14:52:47;100045.47;;;23.14;46.86
50268;BME280;36153;50.960;6.220;2023-04-28T14:55:47;100048.75;;;22.81;47.46
50268;BME280;36153;50.960;6.220;2023-04-28T14:58:47;100046.81;;;23.04;47.34
50268;BME280;36153;50.960;6.220;2023-04-28T15:01:49;100043.38;;;23.21;47.04
50268;BME280;36153;50.960;6.220;2023-04-28T15:04:51;100069.47;;;23.11;46.65
50268;BME280;36153;50.960;6.220;2023-04-28T15:07:52;100055.56;;;22.67;47.28
50268;BME280;36153;50.960;6.220;2023-04-28T15:10:52;100055.69;;;22.45;47.69
50268;BME280;36153;50.960;6.220;2023-04-28T15:13:53;100064.97;;;22.14;49.05
50268;BME280;36153;50.960;6.220;2023-04-28T15:16:53;100071.75;;;21.79;49.33
50268;BME280;36153;50.960;6.220;2023-04-28T15:19:53;100074.56;;;21.96;49.38
50268;BME280;36153;50.960;6.220;2023-04-28T15:22:54;100086.53;;;21.40;49.79
50268;BME280;36153;50.960;6.220;2023-04-28T15:25:54;100096.09;;;20.98;51.37
50268;BME280;36153;50.960;6.220;2023-04-28T15:28:55;100090.53;;;20.83;51.72
50268;BME280;36153;50.960;6.220;2023-04-28T15:31:55;100093.94;;;21.10;51.27
50268;BME280;36153;50.960;6.220;2023-04-28T15:34:55;100103.13;;;20.76;50.89
50268;BME280;36153;50.960;6.220;2023-04-28T15:37:56;100099.66;;;21.21;49.53
50268;BME280;36153;50.960;6.220;2023-04-28T15:40:57;100103.41;;;21.38;48.92
50268;BME280;36153;50.960;6.220;2023-04-28T15:43:57;100106.06;;;21.38;49.03
50268;BME280;36153;50.960;6.220;2023-04-28T15:46:59;100104.81;;;21.70;47.75
50268;BME280;36153;50.960;6.220;2023-04-28T15:50:00;100107.63;;;21.43;47.78
50268;BME280;36153;50.960;6.220;2023-04-28T15:53:00;100114.88;;;21.38;47.69
50268;BME280;36153;50.960;6.220;2023-04-28T15:56:01;100106.69;;;21.44;48.11
50268;BME280;36153;50.960;6.220;2023-04-28T15:59:02;100109.75;;;21.11;48.49